createdAt,value
2022-08-29T00:00:21.381Z,13.00
2022-08-29T00:02:51.144Z,12.90
2022-08-29T00:05:26.806Z,12.80
2022-08-29T00:07:53.793Z,12.80
2022-08-29T00:10:21.129Z,12.70
2022-08-29T00:12:47.953Z,12.70
2022-08-29T00:15:15.737Z,12.60
2022-08-29T00:17:43.124Z,12.60
2022-08-29T00:20:12.993Z,12.60
2022-08-29T00:22:39.662Z,12.50
2022-08-29T00:25:08.382Z,12.50
2022-08-29T00:27:35.415Z,12.60
2022-08-29T00:30:04.189Z,12.50
2022-08-29T00:32:35.038Z,12.50
2022-08-29T00:35:26.270Z,12.60
2022-08-29T00:37:54.620Z,12.60
2022-08-29T00:40:26.889Z,12.50
2022-08-29T00:42:53.617Z,12.40
2022-08-29T00:45:20.800Z,12.40
2022-08-29T00:48:01.382Z,12.40
2022-08-29T00:50:41.949Z,12.40
2022-08-29T00:53:13.327Z,12.40
2022-08-29T00:55:40.852Z,12.50
2022-08-29T00:58:16.180Z,12.50
2022-08-29T01:00:45.022Z,12.50
2022-08-29T01:03:12.124Z,12.50
2022-08-29T01:05:38.814Z,12.40
2022-08-29T01:08:06.860Z,12.40
2022-08-29T01:10:54.218Z,12.40
2022-08-29T01:13:27.614Z,12.40
2022-08-29T01:15:54.997Z,12.30
2022-08-29T01:18:23.135Z,12.30
2022-08-29T01:21:17.253Z,12.30
2022-08-29T01:23:58.110Z,12.30
2022-08-29T01:26:28.453Z,12.20
2022-08-29T01:28:55.970Z,12.30
2022-08-29T01:31:37.843Z,12.30
2022-08-29T01:34:16.532Z,12.30
2022-08-29T01:36:51.765Z,12.30
2022-08-29T01:39:22.002Z,12.20
2022-08-29T01:41:50.102Z,12.20
2022-08-29T01:44:20.530Z,12.30
2022-08-29T01:46:49.594Z,12.30
2022-08-29T01:49:18.122Z,12.30
2022-08-29T01:51:45.760Z,12.30
2022-08-29T01:54:14.402Z,12.30
2022-08-29T01:56:45.569Z,12.30
2022-08-29T01:59:15.269Z,12.30
2022-08-29T02:01:57.112Z,12.30
2022-08-29T02:04:24.288Z,12.30
2022-08-29T02:06:50.972Z,12.30
2022-08-29T02:09:17.696Z,12.30
2022-08-29T02:11:46.376Z,12.30
2022-08-29T02:14:19.632Z,12.30
2022-08-29T02:16:47.771Z,12.30
2022-08-29T02:19:15.290Z,12.20
2022-08-29T02:21:42.044Z,12.30
2022-08-29T02:24:24.440Z,12.30
2022-08-29T02:26:52.835Z,12.20
2022-08-29T02:29:19.479Z,12.30
2022-08-29T02:31:46.210Z,12.20
2022-08-29T02:34:13.482Z,12.30
2022-08-29T02:36:41.413Z,12.30
2022-08-29T02:39:08.848Z,12.40
2022-08-29T02:41:35.888Z,12.50
2022-08-29T02:44:03.095Z,12.60
2022-08-29T02:46:29.758Z,12.60
2022-08-29T02:49:00.929Z,12.70
2022-08-29T02:51:30.723Z,12.60
2022-08-29T02:53:57.900Z,12.60
2022-08-29T02:56:24.726Z,12.60
2022-08-29T02:58:51.833Z,12.60
2022-08-29T03:01:21.088Z,12.50
2022-08-29T03:03:47.940Z,12.60
2022-08-29T03:06:14.611Z,12.60
2022-08-29T03:08:41.374Z,12.70
2022-08-29T03:11:08.275Z,12.80
2022-08-29T03:13:35.154Z,12.80
2022-08-29T03:16:02.489Z,12.90
2022-08-29T03:18:29.762Z,12.90
2022-08-29T03:20:57.353Z,12.90
2022-08-29T03:23:23.977Z,13.00
2022-08-29T03:25:50.939Z,13.00
2022-08-29T03:28:17.565Z,13.10
2022-08-29T03:30:44.711Z,13.20
2022-08-29T03:33:12.177Z,13.30
2022-08-29T03:35:39.448Z,13.30
2022-08-29T03:38:06.221Z,13.20
2022-08-29T03:40:33.757Z,13.20
2022-08-29T03:43:00.912Z,13.20
2022-08-29T03:45:27.561Z,13.30
2022-08-29T03:47:54.201Z,13.30
2022-08-29T03:50:21.685Z,13.30
2022-08-29T03:52:49.063Z,13.20
2022-08-29T03:55:16.423Z,13.10
2022-08-29T03:57:43.225Z,13.10
2022-08-29T04:00:16.053Z,13.10
2022-08-29T04:02:45.362Z,13.00
2022-08-29T04:05:12.854Z,13.00
2022-08-29T04:07:47.050Z,13.00
2022-08-29T04:10:34.442Z,13.00
2022-08-29T04:13:01.488Z,13.00
2022-08-29T04:15:29.543Z,13.10
2022-08-29T04:17:58.346Z,13.10
2022-08-29T04:20:27.451Z,13.20
2022-08-29T04:22:55.714Z,13.20
2022-08-29T04:25:24.813Z,13.20
2022-08-29T04:27:51.809Z,13.20
2022-08-29T04:30:21.314Z,13.30
2022-08-29T04:32:48.082Z,13.30
2022-08-29T04:35:16.010Z,13.40
2022-08-29T04:37:43.938Z,13.50
2022-08-29T04:40:15.586Z,13.50
2022-08-29T04:42:43.549Z,13.60
2022-08-29T04:45:12.780Z,13.60
2022-08-29T04:47:40.760Z,13.60
2022-08-29T04:50:09.701Z,13.60
2022-08-29T04:52:36.904Z,13.70
2022-08-29T04:55:05.069Z,13.80
2022-08-29T04:57:31.762Z,13.90
2022-08-29T04:59:58.885Z,13.90
2022-08-29T05:02:27.719Z,14.00
2022-08-29T05:04:56.470Z,14.00
2022-08-29T05:07:26.848Z,14.00
2022-08-29T05:10:00.887Z,14.00
2022-08-29T05:12:31.569Z,14.10
2022-08-29T05:14:58.239Z,14.20
2022-08-29T05:17:25.924Z,14.30
2022-08-29T05:19:53.393Z,14.40
2022-08-29T05:22:21.235Z,14.50
2022-08-29T05:24:48.914Z,14.50
2022-08-29T05:27:19.778Z,14.60
2022-08-29T05:29:48.735Z,14.60
2022-08-29T05:32:17.338Z,14.70
2022-08-29T05:34:45.278Z,14.70
2022-08-29T05:37:15.101Z,14.70
2022-08-29T05:39:43.060Z,14.80
2022-08-29T05:42:11.314Z,14.90
2022-08-29T05:44:39.137Z,14.90
2022-08-29T05:47:08.984Z,14.90
2022-08-29T05:49:37.545Z,14.90
2022-08-29T05:52:04.959Z,14.90
2022-08-29T05:54:34.826Z,15.00
2022-08-29T05:57:01.910Z,15.00
2022-08-29T05:59:28.578Z,15.00
2022-08-29T06:01:55.211Z,15.10
2022-08-29T06:04:21.975Z,15.10
2022-08-29T06:06:50.614Z,15.10
2022-08-29T06:09:17.357Z,15.10
2022-08-29T06:11:47.399Z,15.10
2022-08-29T06:14:14.983Z,15.10
2022-08-29T06:16:41.781Z,15.00
2022-08-29T06:19:08.603Z,15.00
2022-08-29T06:21:35.431Z,15.00
2022-08-29T06:24:02.232Z,15.10
2022-08-29T06:26:29.042Z,15.10
2022-08-29T06:28:55.686Z,15.10
2022-08-29T06:31:27.124Z,15.00
2022-08-29T06:33:56.894Z,15.20
2022-08-29T06:36:25.413Z,15.20
2022-08-29T06:38:55.071Z,15.40
2022-08-29T06:41:21.730Z,15.60
2022-08-29T06:43:48.339Z,15.60
2022-08-29T06:46:20.501Z,15.70
2022-08-29T06:48:47.187Z,16.10
2022-08-29T06:51:13.864Z,16.20
2022-08-29T06:53:40.740Z,16.20
2022-08-29T06:56:11.267Z,16.00
2022-08-29T06:58:38.895Z,15.80
2022-08-29T07:01:14.709Z,15.60
2022-08-29T07:03:42.037Z,15.60
2022-08-29T07:06:09.863Z,15.60
2022-08-29T07:08:42.219Z,15.70
2022-08-29T07:11:13.546Z,15.70
2022-08-29T07:13:40.890Z,15.70
2022-08-29T07:16:14.672Z,15.70
2022-08-29T07:18:41.409Z,15.90
2022-08-29T07:21:10.226Z,16.00
2022-08-29T07:23:37.236Z,16.20
2022-08-29T07:26:28.602Z,16.30
2022-08-29T07:28:59.686Z,16.50
2022-08-29T07:31:27.329Z,16.50
2022-08-29T07:34:02.909Z,16.40
2022-08-29T07:36:31.709Z,16.30
2022-08-29T07:38:58.445Z,16.30
2022-08-29T07:41:25.632Z,16.20
2022-08-29T07:43:52.651Z,16.20
2022-08-29T07:46:20.849Z,16.30
2022-08-29T07:48:48.180Z,16.40
2022-08-29T07:51:19.776Z,16.30
2022-08-29T07:53:47.058Z,16.30
2022-08-29T07:56:17.144Z,16.40
2022-08-29T07:58:44.396Z,16.50
2022-08-29T08:01:20.880Z,16.60
2022-08-29T08:03:48.686Z,16.80
2022-08-29T08:06:17.335Z,17.00
2022-08-29T08:08:44.397Z,16.80
2022-08-29T08:11:12.649Z,16.60
2022-08-29T08:13:40.037Z,16.60
2022-08-29T08:16:09.317Z,16.70
2022-08-29T08:18:38.309Z,16.70
2022-08-29T08:21:05.358Z,16.70
2022-08-29T08:23:32.258Z,16.80
2022-08-29T08:25:59.184Z,16.80
2022-08-29T08:28:28.118Z,16.90
2022-08-29T08:30:55.240Z,16.70
2022-08-29T08:33:22.010Z,16.70
2022-08-29T08:35:48.694Z,16.70
2022-08-29T08:38:16.956Z,16.70
2022-08-29T08:41:07.045Z,16.90
2022-08-29T08:43:56.559Z,17.00
2022-08-29T08:46:51.701Z,17.10
2022-08-29T08:49:31.332Z,17.40
2022-08-29T08:52:03.412Z,17.40
2022-08-29T08:54:51.838Z,17.50
2022-08-29T08:57:20.639Z,17.60
2022-08-29T08:59:55.291Z,17.70
2022-08-29T09:02:45.612Z,17.80
2022-08-29T09:05:24.191Z,17.90
2022-08-29T09:08:26.869Z,17.90
2022-08-29T09:11:04.201Z,17.90
2022-08-29T09:13:45.887Z,17.70
2022-08-29T09:16:27.326Z,17.80
2022-08-29T09:19:00.696Z,18.00
2022-08-29T09:21:43.883Z,18.20
2022-08-29T09:24:19.138Z,18.20
2022-08-29T09:26:45.825Z,18.20
2022-08-29T09:29:13.855Z,18.20
2022-08-29T09:31:41.121Z,18.00
2022-08-29T09:34:13.146Z,18.20
2022-08-29T09:36:52.914Z,18.50
2022-08-29T09:39:24.357Z,18.50
2022-08-29T09:41:57.452Z,18.80
2022-08-29T09:44:34.126Z,19.20
2022-08-29T09:47:09.525Z,19.20
2022-08-29T09:49:39.827Z,19.30
2022-08-29T09:52:15.646Z,19.30
2022-08-29T09:54:44.148Z,19.60
2022-08-29T09:57:19.410Z,19.70
2022-08-29T09:59:49.239Z,19.70
2022-08-29T10:02:24.162Z,19.70
2022-08-29T10:04:55.812Z,19.50
2022-08-29T10:07:36.400Z,19.70
2022-08-29T10:10:16.980Z,20.00
2022-08-29T10:13:17.173Z,20.10
2022-08-29T10:15:52.511Z,20.10
2022-08-29T10:18:44.182Z,20.40
2022-08-29T10:21:12.424Z,20.50
2022-08-29T10:24:05.803Z,20.30
2022-08-29T10:27:10.027Z,20.30
2022-08-29T10:29:47.992Z,20.40
2022-08-29T10:32:28.182Z,20.30
2022-08-29T10:35:31.004Z,20.50
2022-08-29T10:38:01.054Z,20.80
2022-08-29T10:40:39.411Z,21.00
2022-08-29T10:43:12.958Z,21.20
2022-08-29T10:46:15.601Z,21.40
2022-08-29T10:49:22.918Z,21.90
2022-08-29T10:52:01.754Z,22.30
2022-08-29T10:55:00.619Z,22.30
2022-08-29T10:57:47.149Z,22.40
2022-08-29T11:00:16.831Z,21.90
2022-08-29T11:02:49.009Z,21.70
2022-08-29T11:05:23.215Z,22.10
2022-08-29T11:08:01.217Z,22.60
2022-08-29T11:10:39.727Z,22.50
2022-08-29T11:13:19.779Z,21.90
2022-08-29T11:15:52.635Z,21.90
2022-08-29T11:18:33.355Z,22.00
2022-08-29T11:21:08.161Z,22.00
2022-08-29T11:23:40.590Z,22.40
2022-08-29T11:26:22.217Z,22.60
2022-08-29T11:29:11.320Z,22.80
2022-08-29T11:31:56.307Z,23.20
2022-08-29T11:34:46.806Z,23.40
2022-08-29T11:37:25.769Z,23.20
2022-08-29T11:40:08.342Z,22.90
2022-08-29T11:42:54.952Z,23.50
2022-08-29T11:45:37.381Z,23.50
2022-08-29T11:48:10.261Z,23.20
2022-08-29T11:50:38.622Z,23.00
2022-08-29T11:53:22.372Z,23.10
2022-08-29T11:56:14.271Z,22.70
2022-08-29T11:58:53.630Z,22.90
2022-08-29T12:01:35.441Z,22.80
2022-08-29T12:04:05.222Z,22.70
2022-08-29T12:06:35.077Z,23.10
2022-08-29T12:09:14.303Z,23.20
2022-08-29T12:12:02.338Z,23.30
2022-08-29T12:14:37.870Z,23.00
2022-08-29T12:17:26.654Z,22.80
2022-08-29T12:20:06.277Z,23.00
2022-08-29T12:22:51.693Z,23.60
2022-08-29T12:25:27.868Z,23.70
2022-08-29T12:28:23.749Z,23.60
2022-08-29T12:31:05.953Z,23.20
2022-08-29T12:33:52.326Z,23.00
2022-08-29T12:36:57.959Z,22.90
2022-08-29T12:40:03.655Z,22.90
2022-08-29T12:42:46.299Z,23.60
2022-08-29T12:45:18.807Z,23.40
2022-08-29T12:47:50.113Z,23.40
2022-08-29T12:50:25.185Z,23.40
2022-08-29T12:53:20.063Z,23.60
2022-08-29T12:55:50.673Z,24.60
2022-08-29T12:58:41.464Z,25.60
2022-08-29T13:01:37.894Z,25.90
2022-08-29T13:04:09.813Z,26.00
2022-08-29T13:06:37.855Z,26.20
2022-08-29T13:09:06.238Z,26.40
2022-08-29T13:11:33.480Z,27.10
2022-08-29T13:14:09.905Z,26.70
2022-08-29T13:16:37.779Z,25.60
2022-08-29T13:19:11.315Z,25.30
2022-08-29T13:21:38.637Z,25.20
2022-08-29T13:24:16.912Z,25.70
2022-08-29T13:27:04.328Z,25.90
2022-08-29T13:29:38.704Z,26.10
2022-08-29T13:32:26.666Z,25.80
2022-08-29T13:35:13.467Z,25.10
2022-08-29T13:37:44.765Z,25.50
2022-08-29T13:40:30.635Z,26.40
2022-08-29T13:42:59.045Z,26.90
2022-08-29T13:45:26.165Z,27.10
2022-08-29T13:48:24.453Z,26.80
2022-08-29T13:50:51.060Z,27.30
2022-08-29T13:53:17.786Z,27.00
2022-08-29T13:55:44.482Z,27.10
2022-08-29T13:58:14.656Z,25.90
2022-08-29T14:00:42.017Z,25.40
2022-08-29T14:03:09.299Z,25.30
2022-08-29T14:05:37.195Z,25.10
2022-08-29T14:08:05.130Z,25.10
2022-08-29T14:10:31.878Z,25.10
2022-08-29T14:12:58.642Z,25.00
2022-08-29T14:15:25.299Z,25.00
2022-08-29T14:17:51.961Z,25.00
2022-08-29T14:20:19.336Z,25.30
2022-08-29T14:22:46.960Z,25.90
2022-08-29T14:25:16.074Z,26.20
2022-08-29T14:27:43.651Z,26.00
2022-08-29T14:30:12.467Z,25.70
2022-08-29T14:32:39.401Z,25.00
2022-08-29T14:35:06.577Z,25.00
2022-08-29T14:37:34.410Z,24.90
2022-08-29T14:40:01.600Z,25.00
2022-08-29T14:42:30.617Z,25.00
2022-08-29T14:44:57.388Z,25.10
2022-08-29T14:47:24.494Z,25.40
2022-08-29T14:49:52.131Z,25.30
2022-08-29T14:52:19.355Z,25.30
2022-08-29T14:54:46.129Z,25.50
2022-08-29T14:57:12.985Z,25.70
2022-08-29T14:59:40.624Z,25.90
2022-08-29T15:02:08.001Z,26.40
2022-08-29T15:04:36.936Z,26.50
2022-08-29T15:07:10.587Z,26.00
2022-08-29T15:09:39.125Z,25.40
2022-08-29T15:12:06.637Z,25.30
2022-08-29T15:14:34.831Z,25.40
2022-08-29T15:17:03.690Z,25.40
2022-08-29T15:20:15.870Z,25.30
2022-08-29T15:22:19.721Z,25.10
2022-08-29T15:24:46.907Z,25.20
2022-08-29T15:27:13.714Z,25.10
2022-08-29T15:29:43.108Z,25.00
2022-08-29T15:32:12.037Z,25.00
2022-08-29T15:34:40.131Z,25.00
2022-08-29T15:37:08.374Z,24.70
2022-08-29T15:39:35.169Z,24.80
2022-08-29T15:42:05.419Z,24.90
2022-08-29T15:44:32.068Z,24.80
2022-08-29T15:46:58.729Z,24.70
2022-08-29T15:49:26.226Z,24.70
2022-08-29T15:51:54.014Z,25.00
2022-08-29T15:54:21.773Z,25.30
2022-08-29T15:56:49.533Z,25.30
2022-08-29T15:59:17.854Z,25.60
2022-08-29T16:01:53.390Z,25.70
2022-08-29T16:04:24.134Z,25.80
2022-08-29T16:06:52.059Z,25.70
2022-08-29T16:09:19.601Z,25.60
2022-08-29T16:11:48.538Z,25.60
2022-08-29T16:14:57.428Z,25.60
2022-08-29T16:17:05.397Z,25.70
2022-08-29T16:19:32.673Z,25.70
2022-08-29T16:22:04.120Z,25.50
2022-08-29T16:24:32.154Z,25.40
2022-08-29T16:27:00.013Z,25.90
2022-08-29T16:29:27.759Z,25.60
2022-08-29T16:31:58.001Z,25.40
2022-08-29T16:34:28.646Z,25.80
2022-08-29T16:36:56.918Z,25.60
2022-08-29T16:39:23.874Z,27.00
2022-08-29T16:41:50.924Z,33.20
2022-08-29T16:44:17.996Z,35.50
2022-08-29T16:46:44.625Z,36.30
2022-08-29T16:49:11.350Z,37.30
2022-08-29T16:51:38.120Z,36.80
2022-08-29T16:54:05.357Z,35.80
2022-08-29T16:56:32.813Z,34.60
2022-08-29T16:59:00.111Z,34.70
2022-08-29T17:01:31.988Z,33.80
2022-08-29T17:04:01.465Z,35.50
2022-08-29T17:06:29.402Z,35.40
2022-08-29T17:08:56.726Z,33.10
2022-08-29T17:11:23.990Z,30.80
2022-08-29T17:13:50.631Z,28.90
2022-08-29T17:16:18.070Z,27.20
2022-08-29T17:18:44.815Z,26.20
2022-08-29T17:21:11.756Z,25.40
2022-08-29T17:23:39.054Z,24.80
2022-08-29T17:26:09.261Z,24.50
2022-08-29T17:28:37.726Z,24.10
2022-08-29T17:31:05.352Z,23.90
2022-08-29T17:33:32.749Z,23.80
2022-08-29T17:35:59.726Z,23.60
2022-08-29T17:38:26.880Z,23.50
2022-08-29T17:40:58.317Z,23.40
2022-08-29T17:43:25.943Z,23.30
2022-08-29T17:45:53.004Z,23.20
2022-08-29T17:48:20.557Z,23.20
2022-08-29T17:50:48.449Z,23.20
2022-08-29T17:53:15.744Z,23.10
2022-08-29T17:55:42.570Z,22.90
2022-08-29T17:58:09.193Z,22.60
2022-08-29T18:00:36.318Z,22.40
2022-08-29T18:03:03.937Z,22.20
2022-08-29T18:05:31.008Z,22.00
2022-08-29T18:07:57.634Z,21.80
2022-08-29T18:10:25.222Z,21.60
2022-08-29T18:12:51.885Z,21.50
2022-08-29T18:15:18.917Z,21.30
2022-08-29T18:17:45.614Z,21.10
2022-08-29T18:20:15.606Z,20.90
2022-08-29T18:22:43.295Z,20.80
2022-08-29T18:25:11.422Z,20.70
2022-08-29T18:27:43.634Z,20.60
2022-08-29T18:30:13.476Z,20.60
2022-08-29T18:32:41.101Z,20.40
2022-08-29T18:35:08.435Z,20.40
2022-08-29T18:37:35.794Z,20.20
2022-08-29T18:40:04.129Z,20.10
2022-08-29T18:42:40.444Z,20.10
2022-08-29T18:45:09.399Z,20.00
2022-08-29T18:47:36.476Z,20.00
2022-08-29T18:50:42.943Z,19.90
2022-08-29T18:53:15.700Z,19.80
2022-08-29T18:55:50.456Z,19.70
2022-08-29T18:58:23.406Z,19.70
2022-08-29T19:00:50.485Z,19.60
2022-08-29T19:03:18.166Z,19.60
2022-08-29T19:05:48.403Z,19.50
2022-08-29T19:08:20.897Z,19.40
2022-08-29T19:10:48.113Z,19.30
2022-08-29T19:13:15.886Z,19.30
2022-08-29T19:15:47.036Z,19.20
2022-08-29T19:18:15.657Z,19.20
2022-08-29T19:21:01.294Z,19.10
2022-08-29T19:23:29.545Z,19.00
2022-08-29T19:25:56.994Z,19.00
2022-08-29T19:28:24.174Z,19.00
2022-08-29T19:30:52.054Z,19.00
2022-08-29T19:33:19.597Z,19.00
2022-08-29T19:35:51.047Z,18.90
2022-08-29T19:38:19.802Z,18.90
2022-08-29T19:40:48.435Z,18.90
2022-08-29T19:43:16.217Z,18.80
2022-08-29T19:45:44.518Z,18.80
2022-08-29T19:48:14.791Z,18.70
2022-08-29T19:50:47.675Z,18.70
2022-08-29T19:53:16.917Z,18.60
2022-08-29T19:55:54.166Z,18.60
2022-08-29T19:58:22.645Z,18.50
2022-08-29T20:00:55.555Z,18.60
2022-08-29T20:03:22.779Z,18.50
2022-08-29T20:05:49.542Z,18.50
2022-08-29T20:08:16.337Z,18.40
2022-08-29T20:10:44.645Z,18.40
2022-08-29T20:13:17.134Z,18.40
2022-08-29T20:15:44.193Z,18.30
2022-08-29T20:18:10.950Z,18.30
2022-08-29T20:20:39.833Z,18.20
2022-08-29T20:23:07.192Z,18.20
2022-08-29T20:25:35.030Z,18.20
2022-08-29T20:28:02.522Z,18.10
2022-08-29T20:30:31.480Z,18.10
2022-08-29T20:32:58.438Z,18.00
2022-08-29T20:35:44.311Z,18.00
2022-08-29T20:38:11.050Z,18.00
2022-08-29T20:40:46.643Z,17.90
2022-08-29T20:43:17.898Z,17.90
2022-08-29T20:45:45.172Z,17.80
2022-08-29T20:48:12.374Z,17.80
2022-08-29T20:50:39.327Z,17.70
2022-08-29T20:53:07.392Z,17.70
2022-08-29T20:55:34.185Z,17.60
2022-08-29T20:58:00.852Z,17.50
2022-08-29T21:00:27.837Z,17.50
2022-08-29T21:03:13.234Z,17.50
2022-08-29T21:05:42.788Z,17.40
2022-08-29T21:08:16.553Z,17.40
2022-08-29T21:10:46.076Z,17.30
2022-08-29T21:13:13.955Z,17.30
2022-08-29T21:15:41.980Z,17.30
2022-08-29T21:18:10.040Z,17.20
2022-08-29T21:20:44.865Z,17.10
2022-08-29T21:23:21.857Z,17.10
2022-08-29T21:25:53.705Z,17.00
2022-08-29T21:28:20.397Z,16.90
2022-08-29T21:30:47.036Z,16.90
2022-08-29T21:33:13.716Z,16.90
2022-08-29T21:35:40.913Z,16.90
2022-08-29T21:38:08.954Z,16.80
2022-08-29T21:40:36.198Z,16.80
2022-08-29T21:43:10.930Z,16.70
2022-08-29T21:45:39.975Z,16.70
2022-08-29T21:48:06.699Z,16.70
2022-08-29T21:50:33.382Z,16.60
2022-08-29T21:53:00.012Z,16.60
2022-08-29T21:55:26.785Z,16.50
2022-08-29T21:57:56.167Z,16.50
2022-08-29T22:00:32.574Z,16.50
2022-08-29T22:03:05.436Z,16.50
2022-08-29T22:05:32.902Z,16.40
2022-08-29T22:08:02.762Z,16.30
2022-08-29T22:10:32.350Z,16.30
2022-08-29T22:12:59.364Z,16.30
2022-08-29T22:15:45.724Z,16.20
2022-08-29T22:18:14.726Z,16.20
2022-08-29T22:20:43.409Z,16.20
2022-08-29T22:23:10.963Z,16.10
2022-08-29T22:25:37.645Z,16.10
2022-08-29T22:28:05.314Z,16.10
2022-08-29T22:30:32.843Z,16.00
2022-08-29T22:33:01.294Z,16.00
2022-08-29T22:35:28.405Z,15.90
2022-08-29T22:37:55.217Z,16.00
2022-08-29T22:40:22.068Z,16.00
2022-08-29T22:42:48.825Z,15.90
2022-08-29T22:45:16.866Z,15.90
2022-08-29T22:47:45.566Z,15.90
2022-08-29T22:50:18.503Z,15.80
2022-08-29T22:52:45.979Z,15.80
2022-08-29T22:55:18.240Z,15.70
2022-08-29T22:57:45.265Z,15.70
2022-08-29T23:00:19.262Z,15.70
2022-08-29T23:02:46.895Z,15.80
2022-08-29T23:05:14.030Z,15.70
2022-08-29T23:07:40.778Z,15.60
2022-08-29T23:10:08.592Z,15.50
2022-08-29T23:12:36.234Z,15.50
2022-08-29T23:15:14.875Z,15.60
2022-08-29T23:17:41.737Z,15.50
2022-08-29T23:20:11.400Z,15.50
2022-08-29T23:22:39.125Z,15.40
2022-08-29T23:25:10.682Z,15.40
2022-08-29T23:27:37.391Z,15.40
2022-08-29T23:30:07.059Z,15.50
2022-08-29T23:32:33.821Z,15.40
2022-08-29T23:35:00.455Z,15.40
2022-08-29T23:37:27.090Z,15.40
2022-08-29T23:39:53.805Z,15.40
2022-08-29T23:42:20.539Z,15.40
2022-08-29T23:44:48.501Z,15.40
2022-08-29T23:47:15.769Z,15.40
2022-08-29T23:49:42.497Z,15.40
2022-08-29T23:52:09.322Z,15.40
2022-08-29T23:54:36.740Z,15.40
2022-08-29T23:57:04.283Z,15.40
2022-08-29T23:59:52.182Z,15.40
